sensor_id;sensor_type;location;lat;lon;timestamp;pressure;altitude;pressure_sealevel;temperature;humidity
73516;BME280;61763;51.416;5.442;2023-11-19T00:02:11;100857.78;;;12.48;100.00
73516;BME280;61763;51.416;5.442;2023-11-19T00:04:39;100860.69;;;12.45;100.00
73516;BME280;61763;51.416;5.442;2023-11-19T00:07:05;100855.34;;;12.43;100.00
73516;BME280;61763;51.416;5.442;2023-11-19T00:09:32;100858.78;;;12.47;100.00
73516;BME280;61763;51.416;5.442;2023-11-19T00:11:58;100856.66;;;12.52;100.00
73516;BME280;61763;51.416;5.442;2023-11-19T00:14:25;100859.19;;;12.55;100.00
73516;BME280;61763;51.416;5.442;2023-11-19T00:16:50;100857.63;;;12.51;100.00
73516;BME280;61763;51.416;5.442;2023-11-19T00:19:16;100844.06;;;12.51;100.00
73516;BME280;61763;51.416;5.442;2023-11-19T00:21:41;100835.47;;;12.44;100.00
73516;BME280;61763;51.416;5.442;2023-11-19T00:24:07;100833.53;;;12.47;100.00
73516;BME280;61763;51.416;5.442;2023-11-19T00:26:33;100832.75;;;12.44;100.00
73516;BME280;61763;51.416;5.442;2023-11-19T00:28:59;100828.91;;;12.49;100.00
73516;BME280;61763;51.416;5.442;2023-11-19T00:31:24;100813.63;;;12.48;100.00
73516;BME280;61763;51.416;5.442;2023-11-19T00:33:53;100810.63;;;12.52;100.00
73516;BME280;61763;51.416;5.442;2023-11-19T00:36:18;100803.06;;;12.43;100.00
73516;BME280;61763;51.416;5.442;2023-11-19T00:38:44;100801.50;;;12.39;100.00
73516;BME280;61763;51.416;5.442;2023-11-19T00:41:09;100813.72;;;12.46;100.00
73516;BME280;61763;51.416;5.442;2023-11-19T00:43:35;100806.81;;;12.40;100.00
73516;BME280;61763;51.416;5.442;2023-11-19T00:46:01;100809.25;;;12.45;100.00
73516;BME280;61763;51.416;5.442;2023-11-19T00:48:26;100809.53;;;12.40;100.00
73516;BME280;61763;51.416;5.442;2023-11-19T00:50:53;100805.16;;;12.38;100.00
73516;BME280;61763;51.416;5.442;2023-11-19T00:53:18;100811.75;;;12.34;100.00
73516;BME280;61763;51.416;5.442;2023-11-19T00:55:44;100818.97;;;12.33;100.00
73516;BME280;61763;51.416;5.442;2023-11-19T00:58:09;100824.19;;;12.36;100.00
73516;BME280;61763;51.416;5.442;2023-11-19T01:00:36;100821.75;;;12.32;100.00
73516;BME280;61763;51.416;5.442;2023-11-19T01:03:01;100817.22;;;12.32;100.00
73516;BME280;61763;51.416;5.442;2023-11-19T01:05:26;100817.31;;;12.31;100.00
73516;BME280;61763;51.416;5.442;2023-11-19T01:07:53;100802.19;;;12.42;100.00
73516;BME280;61763;51.416;5.442;2023-11-19T01:10:19;100810.66;;;12.36;100.00
73516;BME280;61763;51.416;5.442;2023-11-19T01:12:45;100822.47;;;12.35;100.00
73516;BME280;61763;51.416;5.442;2023-11-19T01:15:11;100824.19;;;12.36;100.00
73516;BME280;61763;51.416;5.442;2023-11-19T01:17:38;100818.38;;;12.28;100.00
73516;BME280;61763;51.416;5.442;2023-11-19T01:20:04;100818.47;;;12.26;100.00
73516;BME280;61763;51.416;5.442;2023-11-19T01:22:31;100819.78;;;12.19;100.00
73516;BME280;61763;51.416;5.442;2023-11-19T01:24:57;100808.50;;;12.27;100.00
73516;BME280;61763;51.416;5.442;2023-11-19T01:27:23;100809.91;;;12.18;100.00
73516;BME280;61763;51.416;5.442;2023-11-19T01:29:49;100789.84;;;12.22;100.00
73516;BME280;61763;51.416;5.442;2023-11-19T01:32:14;100789.84;;;12.22;100.00
73516;BME280;61763;51.416;5.442;2023-11-19T01:34:40;100779.78;;;12.24;100.00
73516;BME280;61763;51.416;5.442;2023-11-19T01:37:06;100778.06;;;12.23;100.00
73516;BME280;61763;51.416;5.442;2023-11-19T01:39:31;100770.09;;;12.20;100.00
73516;BME280;61763;51.416;5.442;2023-11-19T01:41:57;100776.69;;;12.16;100.00
73516;BME280;61763;51.416;5.442;2023-11-19T01:44:22;100784.34;;;12.24;100.00
73516;BME280;61763;51.416;5.442;2023-11-19T01:46:47;100783.63;;;12.20;100.00
73516;BME280;61763;51.416;5.442;2023-11-19T01:49:17;100777.34;;;12.20;100.00
73516;BME280;61763;51.416;5.442;2023-11-19T01:51:43;100775.34;;;12.23;100.00
73516;BME280;61763;51.416;5.442;2023-11-19T01:54:09;100787.41;;;12.18;100.00
73516;BME280;61763;51.416;5.442;2023-11-19T01:56:35;100786.69;;;12.14;100.00
73516;BME280;61763;51.416;5.442;2023-11-19T01:59:01;100782.09;;;12.00;100.00
73516;BME280;61763;51.416;5.442;2023-11-19T02:01:27;100779.56;;;11.97;100.00
73516;BME280;61763;51.416;5.442;2023-11-19T02:03:55;100803.63;;;12.02;100.00
73516;BME280;61763;51.416;5.442;2023-11-19T02:06:20;100802.16;;;11.96;100.00
73516;BME280;61763;51.416;5.442;2023-11-19T02:08:46;100796.25;;;11.88;100.00
73516;BME280;61763;51.416;5.442;2023-11-19T02:11:11;100803.44;;;11.89;100.00
73516;BME280;61763;51.416;5.442;2023-11-19T02:13:38;100793.81;;;11.83;100.00
73516;BME280;61763;51.416;5.442;2023-11-19T02:16:06;100796.19;;;11.73;100.00
73516;BME280;61763;51.416;5.442;2023-11-19T02:18:33;100785.00;;;11.64;100.00
73516;BME280;61763;51.416;5.442;2023-11-19T02:20:59;100794.59;;;11.53;100.00
73516;BME280;61763;51.416;5.442;2023-11-19T02:23:27;100795.44;;;11.54;100.00
73516;BME280;61763;51.416;5.442;2023-11-19T02:26:05;100801.91;;;11.51;100.00
73516;BME280;61763;51.416;5.442;2023-11-19T02:28:36;100780.03;;;11.56;100.00
73516;BME280;61763;51.416;5.442;2023-11-19T02:31:02;100775.94;;;11.49;100.00
73516;BME280;61763;51.416;5.442;2023-11-19T02:33:30;100770.78;;;11.44;100.00
73516;BME280;61763;51.416;5.442;2023-11-19T02:35:56;100767.19;;;11.44;100.00
73516;BME280;61763;51.416;5.442;2023-11-19T02:38:22;100776.50;;;11.38;100.00
73516;BME280;61763;51.416;5.442;2023-11-19T02:40:48;100788.28;;;11.37;100.00
73516;BME280;61763;51.416;5.442;2023-11-19T02:43:14;100778.63;;;11.15;100.00
73516;BME280;61763;51.416;5.442;2023-11-19T02:45:40;100754.16;;;11.18;100.00
73516;BME280;61763;51.416;5.442;2023-11-19T02:48:05;100746.00;;;11.36;100.00
73516;BME280;61763;51.416;5.442;2023-11-19T02:50:31;100755.78;;;11.38;100.00
73516;BME280;61763;51.416;5.442;2023-11-19T02:52:57;100748.28;;;11.44;100.00
73516;BME280;61763;51.416;5.442;2023-11-19T02:55:23;100752.72;;;11.45;100.00
73516;BME280;61763;51.416;5.442;2023-11-19T02:57:50;100776.84;;;11.32;100.00
73516;BME280;61763;51.416;5.442;2023-11-19T03:00:21;100769.38;;;11.37;100.00
73516;BME280;61763;51.416;5.442;2023-11-19T03:02:50;100758.34;;;11.24;100.00
73516;BME280;61763;51.416;5.442;2023-11-19T03:05:25;100746.38;;;11.12;100.00
73516;BME280;61763;51.416;5.442;2023-11-19T03:07:50;100755.59;;;11.08;100.00
73516;BME280;61763;51.416;5.442;2023-11-19T03:10:16;100763.78;;;11.07;100.00
73516;BME280;61763;51.416;5.442;2023-11-19T03:12:43;100763.38;;;11.14;100.00
73516;BME280;61763;51.416;5.442;2023-11-19T03:15:10;100752.47;;;11.00;100.00
73516;BME280;61763;51.416;5.442;2023-11-19T03:17:41;100756.19;;;10.97;100.00
73516;BME280;61763;51.416;5.442;2023-11-19T03:20:09;100771.44;;;10.98;100.00
73516;BME280;61763;51.416;5.442;2023-11-19T03:22:36;100779.94;;;10.91;100.00
73516;BME280;61763;51.416;5.442;2023-11-19T03:25:02;100781.69;;;10.74;100.00
73516;BME280;61763;51.416;5.442;2023-11-19T03:27:28;100777.41;;;10.87;100.00
73516;BME280;61763;51.416;5.442;2023-11-19T03:29:53;100777.97;;;10.77;100.00
73516;BME280;61763;51.416;5.442;2023-11-19T03:32:18;100781.38;;;10.63;100.00
73516;BME280;61763;51.416;5.442;2023-11-19T03:34:46;100776.72;;;10.66;100.00
73516;BME280;61763;51.416;5.442;2023-11-19T03:37:11;100779.41;;;10.66;100.00
73516;BME280;61763;51.416;5.442;2023-11-19T03:39:39;100767.34;;;10.74;100.00
73516;BME280;61763;51.416;5.442;2023-11-19T03:42:04;100769.22;;;10.72;100.00
73516;BME280;61763;51.416;5.442;2023-11-19T03:44:29;100768.19;;;10.74;100.00
73516;BME280;61763;51.416;5.442;2023-11-19T03:46:55;100781.28;;;10.82;100.00
73516;BME280;61763;51.416;5.442;2023-11-19T03:49:20;100766.44;;;10.91;100.00
73516;BME280;61763;51.416;5.442;2023-11-19T03:51:46;100767.84;;;10.98;100.00
73516;BME280;61763;51.416;5.442;2023-11-19T03:54:11;100773.00;;;11.02;100.00
73516;BME280;61763;51.416;5.442;2023-11-19T03:56:36;100773.00;;;11.02;100.00
73516;BME280;61763;51.416;5.442;2023-11-19T03:59:02;100782.78;;;11.05;100.00
73516;BME280;61763;51.416;5.442;2023-11-19T04:01:28;100779.00;;;10.92;100.00
73516;BME280;61763;51.416;5.442;2023-11-19T04:03:53;100795.19;;;10.92;100.00
73516;BME280;61763;51.416;5.442;2023-11-19T04:06:20;100790.28;;;10.82;100.00
73516;BME280;61763;51.416;5.442;2023-11-19T04:08:46;100788.94;;;10.74;100.00
73516;BME280;61763;51.416;5.442;2023-11-19T04:11:11;100786.56;;;10.67;100.00
73516;BME280;61763;51.416;5.442;2023-11-19T04:13:37;100776.53;;;10.69;100.00
73516;BME280;61763;51.416;5.442;2023-11-19T04:16:02;100782.44;;;10.78;100.00
73516;BME280;61763;51.416;5.442;2023-11-19T04:18:28;100790.81;;;10.89;100.00
73516;BME280;61763;51.416;5.442;2023-11-19T04:20:53;100786.28;;;11.07;100.00
73516;BME280;61763;51.416;5.442;2023-11-19T04:23:18;100792.81;;;11.03;100.00
73516;BME280;61763;51.416;5.442;2023-11-19T04:25:44;100787.50;;;11.01;100.00
73516;BME280;61763;51.416;5.442;2023-11-19T04:28:09;100793.41;;;11.08;100.00
73516;BME280;61763;51.416;5.442;2023-11-19T04:30:34;100793.91;;;10.99;100.00
73516;BME280;61763;51.416;5.442;2023-11-19T04:33:00;100794.63;;;10.85;100.00
73516;BME280;61763;51.416;5.442;2023-11-19T04:35:26;100817.59;;;10.76;100.00
73516;BME280;61763;51.416;5.442;2023-11-19T04:37:51;100820.34;;;10.75;100.00
73516;BME280;61763;51.416;5.442;2023-11-19T04:40:17;100792.50;;;10.74;100.00
73516;BME280;61763;51.416;5.442;2023-11-19T04:42:43;100792.16;;;10.80;100.00
73516;BME280;61763;51.416;5.442;2023-11-19T04:45:09;100792.34;;;10.77;100.00
73516;BME280;61763;51.416;5.442;2023-11-19T04:47:36;100790.91;;;10.70;100.00
73516;BME280;61763;51.416;5.442;2023-11-19T04:50:02;100789.38;;;10.64;100.00
73516;BME280;61763;51.416;5.442;2023-11-19T04:52:27;100791.78;;;10.71;100.00
73516;BME280;61763;51.416;5.442;2023-11-19T04:54:52;100787.34;;;10.87;100.00
73516;BME280;61763;51.416;5.442;2023-11-19T04:57:18;100795.75;;;10.63;100.00
73516;BME280;61763;51.416;5.442;2023-11-19T04:59:43;100791.78;;;10.71;100.00
73516;BME280;61763;51.416;5.442;2023-11-19T05:02:10;100792.75;;;10.69;100.00
73516;BME280;61763;51.416;5.442;2023-11-19T05:04:35;100805.22;;;10.72;100.00
73516;BME280;61763;51.416;5.442;2023-11-19T05:07:01;100800.59;;;10.57;100.00
73516;BME280;61763;51.416;5.442;2023-11-19T05:09:28;100801.84;;;10.49;100.00
73516;BME280;61763;51.416;5.442;2023-11-19T05:11:53;100804.78;;;10.45;100.00
73516;BME280;61763;51.416;5.442;2023-11-19T05:14:19;100806.94;;;10.38;100.00
73516;BME280;61763;51.416;5.442;2023-11-19T05:16:45;100803.50;;;10.34;100.00
73516;BME280;61763;51.416;5.442;2023-11-19T05:19:11;100811.63;;;10.33;100.00
73516;BME280;61763;51.416;5.442;2023-11-19T05:21:36;100803.50;;;10.34;100.00
73516;BME280;61763;51.416;5.442;2023-11-19T05:24:02;100797.06;;;10.37;100.00
73516;BME280;61763;51.416;5.442;2023-11-19T05:26:29;100808.16;;;10.31;100.00
73516;BME280;61763;51.416;5.442;2023-11-19T05:28:55;100811.44;;;10.38;100.00
73516;BME280;61763;51.416;5.442;2023-11-19T05:31:20;100810.34;;;10.42;100.00
73516;BME280;61763;51.416;5.442;2023-11-19T05:33:46;100812.47;;;10.35;100.00
73516;BME280;61763;51.416;5.442;2023-11-19T05:36:12;100815.81;;;10.40;100.00
73516;BME280;61763;51.416;5.442;2023-11-19T05:38:38;100821.72;;;10.29;100.00
73516;BME280;61763;51.416;5.442;2023-11-19T05:41:04;100819.69;;;10.34;100.00
73516;BME280;61763;51.416;5.442;2023-11-19T05:43:30;100816.69;;;10.22;100.00
73516;BME280;61763;51.416;5.442;2023-11-19T05:45:56;100809.31;;;10.25;100.00
73516;BME280;61763;51.416;5.442;2023-11-19T05:48:21;100811.50;;;10.17;100.00
73516;BME280;61763;51.416;5.442;2023-11-19T05:50:47;100824.91;;;10.18;100.00
73516;BME280;61763;51.416;5.442;2023-11-19T05:53:14;100813.88;;;10.06;100.00
73516;BME280;61763;51.416;5.442;2023-11-19T05:55:40;100819.13;;;10.09;100.00
73516;BME280;61763;51.416;5.442;2023-11-19T05:58:11;100814.50;;;10.11;100.00
73516;BME280;61763;51.416;5.442;2023-11-19T06:00:38;100811.50;;;10.36;100.00
73516;BME280;61763;51.416;5.442;2023-11-19T06:03:05;100818.28;;;10.26;100.00
73516;BME280;61763;51.416;5.442;2023-11-19T06:05:31;100823.00;;;10.03;100.00
73516;BME280;61763;51.416;5.442;2023-11-19T06:07:56;100821.06;;;10.24;100.00
73516;BME280;61763;51.416;5.442;2023-11-19T06:10:22;100819.44;;;10.20;100.00
73516;BME280;61763;51.416;5.442;2023-11-19T06:12:54;100833.16;;;10.15;100.00
73516;BME280;61763;51.416;5.442;2023-11-19T06:15:21;100840.91;;;10.04;100.00
73516;BME280;61763;51.416;5.442;2023-11-19T06:17:46;100830.84;;;9.89;100.00
73516;BME280;61763;51.416;5.442;2023-11-19T06:20:12;100827.38;;;9.87;100.00
73516;BME280;61763;51.416;5.442;2023-11-19T06:22:39;100818.69;;;9.99;100.00
73516;BME280;61763;51.416;5.442;2023-11-19T06:25:05;100823.38;;;9.95;100.00
73516;BME280;61763;51.416;5.442;2023-11-19T06:27:32;100825.16;;;9.95;100.00
73516;BME280;61763;51.416;5.442;2023-11-19T06:29:57;100833.56;;;9.89;100.00
73516;BME280;61763;51.416;5.442;2023-11-19T06:32:23;100833.84;;;9.82;100.00
73516;BME280;61763;51.416;5.442;2023-11-19T06:34:48;100835.81;;;9.79;100.00
73516;BME280;61763;51.416;5.442;2023-11-19T06:37:13;100826.06;;;9.76;100.00
73516;BME280;61763;51.416;5.442;2023-11-19T06:39:39;100822.91;;;9.86;100.00
73516;BME280;61763;51.416;5.442;2023-11-19T06:42:05;100827.94;;;9.74;100.00
73516;BME280;61763;51.416;5.442;2023-11-19T06:44:31;100815.91;;;9.81;100.00
73516;BME280;61763;51.416;5.442;2023-11-19T06:46:56;100830.84;;;9.70;100.00
73516;BME280;61763;51.416;5.442;2023-11-19T06:49:21;100826.47;;;9.67;100.00
73516;BME280;61763;51.416;5.442;2023-11-19T06:51:48;100821.09;;;9.67;100.00
73516;BME280;61763;51.416;5.442;2023-11-19T06:54:13;100819.13;;;9.71;100.00
73516;BME280;61763;51.416;5.442;2023-11-19T06:56:39;100829.25;;;9.65;100.00
73516;BME280;61763;51.416;5.442;2023-11-19T06:59:04;100836.69;;;9.79;100.00
73516;BME280;61763;51.416;5.442;2023-11-19T07:01:37;100838.16;;;9.68;100.00
73516;BME280;61763;51.416;5.442;2023-11-19T07:04:03;100833.84;;;9.82;100.00
73516;BME280;61763;51.416;5.442;2023-11-19T07:06:34;100843.31;;;9.72;100.00
73516;BME280;61763;51.416;5.442;2023-11-19T07:09:00;100849.28;;;9.60;100.00
73516;BME280;61763;51.416;5.442;2023-11-19T07:11:34;100857.69;;;9.52;100.00
73516;BME280;61763;51.416;5.442;2023-11-19T07:14:00;100858.25;;;9.60;100.00
73516;BME280;61763;51.416;5.442;2023-11-19T07:16:25;100859.16;;;9.59;100.00
73516;BME280;61763;51.416;5.442;2023-11-19T07:18:51;100851.84;;;9.82;100.00
73516;BME280;61763;51.416;5.442;2023-11-19T07:21:16;100865.44;;;9.79;100.00
73516;BME280;61763;51.416;5.442;2023-11-19T07:23:42;100867.66;;;9.90;100.00
73516;BME280;61763;51.416;5.442;2023-11-19T07:26:07;100869.34;;;9.92;100.00
73516;BME280;61763;51.416;5.442;2023-11-19T07:28:36;100869.69;;;10.04;100.00
73516;BME280;61763;51.416;5.442;2023-11-19T07:31:02;100865.59;;;9.95;100.00
73516;BME280;61763;51.416;5.442;2023-11-19T07:33:28;100869.38;;;9.91;100.00
73516;BME280;61763;51.416;5.442;2023-11-19T07:35:54;100879.53;;;9.86;100.00
73516;BME280;61763;51.416;5.442;2023-11-19T07:38:20;100894.22;;;9.78;100.00
73516;BME280;61763;51.416;5.442;2023-11-19T07:40:45;100877.00;;;10.02;100.00
73516;BME280;61763;51.416;5.442;2023-11-19T07:43:12;100882.81;;;9.92;100.00
73516;BME280;61763;51.416;5.442;2023-11-19T07:45:38;100881.56;;;9.99;100.00
73516;BME280;61763;51.416;5.442;2023-11-19T07:48:03;100877.41;;;10.11;100.00
73516;BME280;61763;51.416;5.442;2023-11-19T07:50:29;100877.47;;;10.10;100.00
73516;BME280;61763;51.416;5.442;2023-11-19T07:52:56;100876.31;;;10.15;100.00
73516;BME280;61763;51.416;5.442;2023-11-19T07:55:22;100876.84;;;10.05;100.00
73516;BME280;61763;51.416;5.442;2023-11-19T07:57:47;100866.41;;;10.16;100.00
73516;BME280;61763;51.416;5.442;2023-11-19T08:00:14;100870.34;;;10.09;100.00
73516;BME280;61763;51.416;5.442;2023-11-19T08:02:39;100877.56;;;10.08;100.00
73516;BME280;61763;51.416;5.442;2023-11-19T08:05:05;100872.53;;;10.20;100.00
73516;BME280;61763;51.416;5.442;2023-11-19T08:07:31;100885.06;;;10.21;100.00
73516;BME280;61763;51.416;5.442;2023-11-19T08:09:56;100886.78;;;10.22;100.00
73516;BME280;61763;51.416;5.442;2023-11-19T08:12:22;100886.88;;;10.20;100.00
73516;BME280;61763;51.416;5.442;2023-11-19T08:14:48;100885.06;;;10.21;100.00
73516;BME280;61763;51.416;5.442;2023-11-19T08:17:14;100885.63;;;10.27;100.00
73516;BME280;61763;51.416;5.442;2023-11-19T08:19:40;100888.41;;;10.45;100.00
73516;BME280;61763;51.416;5.442;2023-11-19T08:22:05;100891.13;;;10.45;100.00
73516;BME280;61763;51.416;5.442;2023-11-19T08:24:30;100882.47;;;10.38;100.00
73516;BME280;61763;51.416;5.442;2023-11-19T08:26:56;100887.56;;;10.44;100.00
73516;BME280;61763;51.416;5.442;2023-11-19T08:29:21;100893.59;;;10.49;100.00
73516;BME280;61763;51.416;5.442;2023-11-19T08:31:48;100894.00;;;10.59;100.00
73516;BME280;61763;51.416;5.442;2023-11-19T08:34:13;100897.81;;;10.55;100.00
73516;BME280;61763;51.416;5.442;2023-11-19T08:36:39;100893.84;;;10.62;100.00
73516;BME280;61763;51.416;5.442;2023-11-19T08:39:04;100876.25;;;10.73;100.00
73516;BME280;61763;51.416;5.442;2023-11-19T08:41:29;100887.53;;;10.81;100.00
73516;BME280;61763;51.416;5.442;2023-11-19T08:43:55;100882.81;;;10.67;100.00
73516;BME280;61763;51.416;5.442;2023-11-19T08:46:20;100880.72;;;10.74;100.00
73516;BME280;61763;51.416;5.442;2023-11-19T08:48:47;100884.03;;;10.79;100.00
73516;BME280;61763;51.416;5.442;2023-11-19T08:51:13;100885.94;;;10.77;100.00
73516;BME280;61763;51.416;5.442;2023-11-19T08:53:39;100890.31;;;10.79;100.00
73516;BME280;61763;51.416;5.442;2023-11-19T08:56:04;100882.84;;;10.84;100.00
73516;BME280;61763;51.416;5.442;2023-11-19T08:58:30;100895.88;;;10.94;100.00
73516;BME280;61763;51.416;5.442;2023-11-19T09:00:56;100887.00;;;10.92;100.00
73516;BME280;61763;51.416;5.442;2023-11-19T09:03:21;100890.34;;;10.97;100.00
73516;BME280;61763;51.416;5.442;2023-11-19T09:05:47;100886.50;;;11.01;100.00
73516;BME280;61763;51.416;5.442;2023-11-19T09:08:12;100887.69;;;11.13;100.00
73516;BME280;61763;51.416;5.442;2023-11-19T09:10:37;100891.28;;;11.13;100.00
73516;BME280;61763;51.416;5.442;2023-11-19T09:13:03;100886.66;;;11.15;100.00
73516;BME280;61763;51.416;5.442;2023-11-19T09:15:29;100889.03;;;11.21;100.00
73516;BME280;61763;51.416;5.442;2023-11-19T09:17:54;100880.69;;;11.26;100.00
73516;BME280;61763;51.416;5.442;2023-11-19T09:20:20;100884.22;;;11.28;100.00
73516;BME280;61763;51.416;5.442;2023-11-19T09:22:45;100895.97;;;11.27;100.00
73516;BME280;61763;51.416;5.442;2023-11-19T09:25:11;100903.56;;;11.36;100.00
73516;BME280;61763;51.416;5.442;2023-11-19T09:27:36;100884.56;;;11.38;100.00
73516;BME280;61763;51.416;5.442;2023-11-19T09:30:02;100879.16;;;11.38;100.00
73516;BME280;61763;51.416;5.442;2023-11-19T09:32:29;100881.25;;;11.50;100.00
73516;BME280;61763;51.416;5.442;2023-11-19T09:34:54;100881.28;;;11.66;100.00
73516;BME280;61763;51.416;5.442;2023-11-19T09:37:20;100877.03;;;11.78;100.00
73516;BME280;61763;51.416;5.442;2023-11-19T09:39:46;100875.84;;;11.84;100.00
73516;BME280;61763;51.416;5.442;2023-11-19T09:42:12;100872.47;;;11.96;100.00
73516;BME280;61763;51.416;5.442;2023-11-19T09:44:38;100878.06;;;11.93;100.00
73516;BME280;61763;51.416;5.442;2023-11-19T09:47:05;100868.66;;;12.00;100.00
73516;BME280;61763;51.416;5.442;2023-11-19T09:49:32;100877.91;;;12.12;100.00
73516;BME280;61763;51.416;5.442;2023-11-19T09:51:58;100878.16;;;12.07;100.00
73516;BME280;61763;51.416;5.442;2023-11-19T09:54:23;100876.41;;;12.06;100.00
73516;BME280;61763;51.416;5.442;2023-11-19T09:56:49;100865.88;;;12.18;100.00
73516;BME280;61763;51.416;5.442;2023-11-19T09:59:15;100869.25;;;12.21;100.00
73516;BME280;61763;51.416;5.442;2023-11-19T10:01:41;100874.66;;;12.37;100.00
73516;BME280;61763;51.416;5.442;2023-11-19T10:04:08;100866.47;;;12.39;100.00
73516;BME280;61763;51.416;5.442;2023-11-19T10:06:35;100867.84;;;12.46;100.00
73516;BME280;61763;51.416;5.442;2023-11-19T10:09:00;100864.97;;;12.49;100.00
73516;BME280;61763;51.416;5.442;2023-11-19T10:11:26;100862.97;;;12.37;100.00
73516;BME280;61763;51.416;5.442;2023-11-19T10:13:55;100855.72;;;12.21;100.00
73516;BME280;61763;51.416;5.442;2023-11-19T10:16:28;100855.31;;;12.13;100.00
73516;BME280;61763;51.416;5.442;2023-11-19T10:18:55;100850.66;;;12.15;100.00
73516;BME280;61763;51.416;5.442;2023-11-19T10:21:20;100875.78;;;12.33;100.00
73516;BME280;61763;51.416;5.442;2023-11-19T10:26:13;100863.41;;;12.29;100.00
73516;BME280;61763;51.416;5.442;2023-11-19T10:28:39;100878.22;;;12.38;100.00
73516;BME280;61763;51.416;5.442;2023-11-19T10:31:11;100869.94;;;12.41;100.00
73516;BME280;61763;51.416;5.442;2023-11-19T10:33:38;100866.59;;;12.68;100.00
73516;BME280;61763;51.416;5.442;2023-11-19T10:36:04;100858.91;;;12.60;100.00
73516;BME280;61763;51.416;5.442;2023-11-19T10:38:30;100867.56;;;12.51;100.00
73516;BME280;61763;51.416;5.442;2023-11-19T10:40:56;100871.16;;;12.51;100.00
73516;BME280;61763;51.416;5.442;2023-11-19T10:43:22;100869.84;;;12.58;100.00
73516;BME280;61763;51.416;5.442;2023-11-19T10:45:48;100867.50;;;12.52;100.00
73516;BME280;61763;51.416;5.442;2023-11-19T10:48:14;100855.78;;;12.52;100.00
73516;BME280;61763;51.416;5.442;2023-11-19T10:50:41;100871.94;;;12.53;100.00
73516;BME280;61763;51.416;5.442;2023-11-19T10:53:09;100867.84;;;12.62;100.00
73516;BME280;61763;51.416;5.442;2023-11-19T10:55:38;100868.78;;;12.61;100.00
73516;BME280;61763;51.416;5.442;2023-11-19T10:58:08;100879.78;;;12.74;100.00
73516;BME280;61763;51.416;5.442;2023-11-19T11:00:50;100880.41;;;12.93;100.00
73516;BME280;61763;51.416;5.442;2023-11-19T11:03:18;100871.81;;;12.87;100.00
73516;BME280;61763;51.416;5.442;2023-11-19T11:05:46;100871.19;;;12.82;100.00
73516;BME280;61763;51.416;5.442;2023-11-19T11:08:12;100860.25;;;12.83;100.00
73516;BME280;61763;51.416;5.442;2023-11-19T11:10:42;100864.00;;;12.66;100.00
73516;BME280;61763;51.416;5.442;2023-11-19T11:13:09;100856.28;;;12.58;100.00
73516;BME280;61763;51.416;5.442;2023-11-19T11:15:36;100851.59;;;12.46;100.00
73516;BME280;61763;51.416;5.442;2023-11-19T11:18:02;100854.41;;;12.44;100.00
73516;BME280;61763;51.416;5.442;2023-11-19T11:20:33;100844.34;;;12.47;100.00
73516;BME280;61763;51.416;5.442;2023-11-19T11:28:42;100852.84;;;12.24;100.00
73516;BME280;61763;51.416;5.442;2023-11-19T11:33:55;100843.19;;;12.04;100.00
73516;BME280;61763;51.416;5.442;2023-11-19T11:36:24;100855.06;;;11.84;100.00
73516;BME280;61763;51.416;5.442;2023-11-19T11:38:50;100855.53;;;11.59;100.00
73516;BME280;61763;51.416;5.442;2023-11-19T11:41:22;100845.59;;;11.60;100.00
73516;BME280;61763;51.416;5.442;2023-11-19T11:43:51;100849.50;;;11.54;100.00
73516;BME280;61763;51.416;5.442;2023-11-19T11:48:59;100827.38;;;11.30;100.00
73516;BME280;61763;51.416;5.442;2023-11-19T11:57:06;100830.69;;;11.19;100.00
73516;BME280;61763;51.416;5.442;2023-11-19T11:59:48;100820.63;;;11.38;100.00
73516;BME280;61763;51.416;5.442;2023-11-19T12:02:16;100823.28;;;11.56;100.00
73516;BME280;61763;51.416;5.442;2023-11-19T12:04:43;100816.75;;;11.60;100.00
73516;BME280;61763;51.416;5.442;2023-11-19T12:07:14;100823.72;;;11.64;100.00
73516;BME280;61763;51.416;5.442;2023-11-19T12:10:13;100825.94;;;11.73;100.00
73516;BME280;61763;51.416;5.442;2023-11-19T12:12:41;100813.72;;;11.82;100.00
73516;BME280;61763;51.416;5.442;2023-11-19T12:15:08;100799.75;;;11.74;100.00
73516;BME280;61763;51.416;5.442;2023-11-19T12:17:42;100808.41;;;11.81;100.00
73516;BME280;61763;51.416;5.442;2023-11-19T12:20:12;100807.16;;;11.86;100.00
73516;BME280;61763;51.416;5.442;2023-11-19T12:22:39;100810.69;;;11.88;100.00
73516;BME280;61763;51.416;5.442;2023-11-19T12:25:05;100800.41;;;11.95;100.00
73516;BME280;61763;51.416;5.442;2023-11-19T12:29:59;100797.91;;;11.74;100.00
73516;BME280;61763;51.416;5.442;2023-11-19T12:32:25;100806.75;;;11.78;100.00
73516;BME280;61763;51.416;5.442;2023-11-19T12:34:50;100809.69;;;11.89;100.00
73516;BME280;61763;51.416;5.442;2023-11-19T12:37:15;100813.19;;;11.91;100.00
73516;BME280;61763;51.416;5.442;2023-11-19T12:39:41;100810.53;;;12.07;100.00
73516;BME280;61763;51.416;5.442;2023-11-19T12:42:06;100816.28;;;12.01;100.00
73516;BME280;61763;51.416;5.442;2023-11-19T12:44:32;100832.59;;;12.16;100.00
73516;BME280;61763;51.416;5.442;2023-11-19T12:47:08;100817.94;;;12.20;100.00
73516;BME280;61763;51.416;5.442;2023-11-19T12:49:36;100814.69;;;12.29;100.00
73516;BME280;61763;51.416;5.442;2023-11-19T12:52:10;100814.59;;;12.31;100.00
73516;BME280;61763;51.416;5.442;2023-11-19T12:54:36;100801.59;;;12.21;100.00
73516;BME280;61763;51.416;5.442;2023-11-19T12:57:02;100809.22;;;12.15;100.00
73516;BME280;61763;51.416;5.442;2023-11-19T12:59:29;100809.06;;;12.18;100.00